30.4°F
Current conditions from King Hill
Updated every 5 minutes
 
  Saturday November 1, 2014

Station Historical Data
Daily Summary for February 8, 2011 Units:  Metric    English   Both
« Previous Day
Next Day »
Daily Weekly Monthly Yearly Custom
  High: Low: Average:
Temperature: -0.3 °C -17.6 °C -8.7 °C
Dew Point: -1.1 °C -20.9 °C -10.9 °C
Humidity: 94% 72% 84%
Wind Speed: 12.9km/h 1.6km/h 4.8km/h
Wind Gust: 25.7km/h - -
Wind- - WSW
Pressure: 1014.8 hPa 999.2 hPa -
Precipitation: 0 mm    
Historical Graphs
 
 
Tabular Data for February 8, 2011
Time Temperature Dew Point Pressure Wind Wind Speed Wind Gust Humidity Daily Rainfall
00:10 -0.3 °C -1.3 °C 1003.9 hPa SSW 4.8 km/h 9.7 km/h 93% 0 mm
00:35 -0.3 °C -1.3 °C 1003.9 hPa SSW 6.4 km/h 11.3 km/h 93% 0 mm
00:40 -0.3 °C -1.2 °C 1003.6 hPa SSW 8 km/h 11.3 km/h 94% 0 mm
00:45 -0.3 °C -1.2 °C 1003.6 hPa SSW 8 km/h 11.3 km/h 94% 0 mm
00:50 -0.3 °C -1.2 °C 1003.6 hPa SSW 6.4 km/h 12.9 km/h 94% 0 mm
00:55 -0.3 °C -1.2 °C 1003.3 hPa SSW 4.8 km/h 12.9 km/h 94% 0 mm
01:00 -0.3 °C -1.2 °C 1003.3 hPa SSW 4.8 km/h 12.9 km/h 94% 0 mm
01:05 -0.3 °C -1.2 °C 1002.9 hPa SSW 4.8 km/h 11.3 km/h 94% 0 mm
01:10 -0.3 °C -1.2 °C 1002.9 hPa SSW 4.8 km/h 11.3 km/h 94% 0 mm
01:15 -0.3 °C -1.2 °C 1002.9 hPa SSW 3.2 km/h 11.3 km/h 94% 0 mm
01:20 -0.3 °C -1.2 °C 1002.6 hPa SW 6.4 km/h 12.9 km/h 94% 0 mm
01:25 -0.3 °C -1.2 °C 1002.6 hPa SSW 6.4 km/h 12.9 km/h 94% 0 mm
01:30 -0.3 °C -1.2 °C 1002.6 hPa SW 6.4 km/h 11.3 km/h 94% 0 mm
01:35 -0.3 °C -1.2 °C 1002.3 hPa SSW 8 km/h 14.5 km/h 94% 0 mm
01:40 -0.3 °C -1.2 °C 1002.3 hPa SW 4.8 km/h 14.5 km/h 94% 0 mm
01:45 -0.3 °C -1.2 °C 1001.9 hPa SSW 4.8 km/h 11.3 km/h 94% 0 mm
01:50 -0.3 °C -1.2 °C 1001.9 hPa SSW 6.4 km/h 11.3 km/h 94% 0 mm
01:55 -0.3 °C -1.2 °C 1001.9 hPa SSW 6.4 km/h 11.3 km/h 94% 0 mm
02:00 -0.3 °C -1.2 °C 1001.6 hPa SW 4.8 km/h 12.9 km/h 94% 0 mm
02:05 -0.3 °C -1.2 °C 1001.6 hPa SSW 6.4 km/h 12.9 km/h 94% 0 mm
02:10 -0.3 °C -1.2 °C 1001.6 hPa SW 6.4 km/h 9.7 km/h 94% 0 mm
02:15 -0.3 °C -1.2 °C 1001.6 hPa SSW 3.2 km/h 9.7 km/h 94% 0 mm
02:20 -0.3 °C -1.2 °C 1001.2 hPa SSW 4.8 km/h 9.7 km/h 94% 0 mm
02:25 -0.3 °C -1.2 °C 1001.6 hPa SW 3.2 km/h 8 km/h 94% 0 mm
02:30 -0.3 °C -1.2 °C 1001.2 hPa SW 3.2 km/h 8 km/h 94% 0 mm
02:35 -0.3 °C -1.2 °C 1001.2 hPa Calm   8 km/h 94% 0 mm
02:40 -0.3 °C -1.2 °C 1001.2 hPa SW 1.6 km/h 6.4 km/h 94% 0 mm
02:45 -0.3 °C -1.2 °C 1001.2 hPa SW 3.2 km/h 6.4 km/h 94% 0 mm
02:50 -0.3 °C -1.1 °C 1000.9 hPa SW 4.8 km/h 9.7 km/h 94% 0 mm
02:55 -0.3 °C -1.1 °C 1001.2 hPa Calm   9.7 km/h 94% 0 mm
03:00 -0.3 °C -1.1 °C 1000.9 hPa Calm   4.8 km/h 94% 0 mm
03:05 -0.3 °C -1.1 °C 1000.9 hPa Calm   3.2 km/h 94% 0 mm
03:10 -0.3 °C -1.2 °C 1000.9 hPa Calm   3.2 km/h 94% 0 mm
03:15 -0.3 °C -1.2 °C 1000.6 hPa SW 1.6 km/h 6.4 km/h 94% 0 mm
03:20 -0.3 °C -1.2 °C 1000.6 hPa WSW 1.6 km/h 6.4 km/h 94% 0 mm
03:25 -0.4 °C -1.2 °C 1000.2 hPa Calm   4.8 km/h 94% 0 mm
03:30 -0.4 °C -1.3 °C 1000.2 hPa West 1.6 km/h 4.8 km/h 94% 0 mm
03:35 -0.4 °C -1.3 °C 1000.2 hPa Calm   4.8 km/h 94% 0 mm
03:40 -0.5 °C -1.3 °C 1000.2 hPa Calm   3.2 km/h 94% 0 mm
03:45 -0.5 °C -1.3 °C 999.9 hPa West 1.6 km/h 4.8 km/h 94% 0 mm
03:50 -0.5 °C -1.3 °C 999.9 hPa Calm   4.8 km/h 94% 0 mm
03:55 -0.6 °C -1.4 °C 999.9 hPa West 1.6 km/h 3.2 km/h 94% 0 mm
04:00 -0.6 °C -1.4 °C 999.9 hPa Calm   3.2 km/h 94% 0 mm
04:05 -0.6 °C -1.4 °C 999.9 hPa West 1.6 km/h 3.2 km/h 94% 0 mm
04:10 -0.7 °C -1.5 °C 999.9 hPa WNW 1.6 km/h 6.4 km/h 94% 0 mm
04:15 -0.7 °C -1.5 °C 999.9 hPa Calm   6.4 km/h 94% 0 mm
04:20 -0.7 °C -1.5 °C 999.9 hPa WNW 1.6 km/h 6.4 km/h 94% 0 mm
04:25 -0.7 °C -1.5 °C 999.9 hPa Calm   6.4 km/h 94% 0 mm
04:30 -0.7 °C -1.6 °C 999.9 hPa Calm   3.2 km/h 94% 0 mm
04:35 -0.7 °C -1.6 °C 999.5 hPa WNW 1.6 km/h 3.2 km/h 94% 0 mm
04:40 -0.8 °C -1.6 °C 999.5 hPa WNW 1.6 km/h 3.2 km/h 94% 0 mm
04:45 -0.8 °C -1.6 °C 999.5 hPa Calm   3.2 km/h 94% 0 mm
04:50 -0.8 °C -1.7 °C 999.5 hPa Calm   3.2 km/h 94% 0 mm
04:55 -0.8 °C -1.7 °C 999.5 hPa Calm   3.2 km/h 94% 0 mm
05:00 -0.8 °C -1.7 °C 999.2 hPa Calm   1.6 km/h 94% 0 mm
05:05 -0.8 °C -1.7 °C 999.2 hPa Calm   1.6 km/h 94% 0 mm
05:10 -0.9 °C -1.7 °C 999.2 hPa Calm   3.2 km/h 94% 0 mm
05:15 -0.9 °C -1.8 °C 999.2 hPa WNW 1.6 km/h 4.8 km/h 94% 0 mm
05:20 -0.9 °C -1.8 °C 999.2 hPa Calm   4.8 km/h 94% 0 mm
05:25 -0.9 °C -1.8 °C 999.5 hPa NNW 1.6 km/h 6.4 km/h 94% 0 mm
05:30 -0.9 °C -1.8 °C 999.5 hPa NW 3.2 km/h 6.4 km/h 94% 0 mm
05:35 -0.9 °C -1.8 °C 999.5 hPa NNW 3.2 km/h 6.4 km/h 94% 0 mm
05:40 -1 °C -1.8 °C 999.5 hPa NNW 1.6 km/h 6.4 km/h 94% 0 mm
05:45 -1.1 °C -1.9 °C 999.5 hPa NNW 3.2 km/h 8 km/h 94% 0 mm
05:50 -1.1 °C -1.9 °C 999.5 hPa NW 1.6 km/h 9.7 km/h 94% 0 mm
05:55 -1.1 °C -1.9 °C 999.5 hPa NW 1.6 km/h 9.7 km/h 94% 0 mm
06:00 -1.2 °C -2 °C 999.5 hPa NW 1.6 km/h 6.4 km/h 94% 0 mm
06:05 -1.2 °C -2 °C 999.5 hPa NNW 3.2 km/h 8 km/h 94% 0 mm
06:10 -1.2 °C -2 °C 999.5 hPa NW 3.2 km/h 8 km/h 94% 0 mm
06:20 -1.3 °C -2.1 °C 999.5 hPa NNW 4.8 km/h 11.3 km/h 94% 0 mm
06:25 -1.3 °C -2.1 °C 999.5 hPa NW 6.4 km/h 12.9 km/h 94% 0 mm
06:30 -1.4 °C -2.3 °C 999.5 hPa NNW 6.4 km/h 20.9 km/h 94% 0 mm
06:35 -1.8 °C -2.8 °C 999.5 hPa NNW 8 km/h 20.9 km/h 93% 0 mm
06:40 -2.5 °C -3.6 °C 999.9 hPa North 4.8 km/h 16.1 km/h 92% 0 mm
06:45 -3.2 °C -4.4 °C 999.9 hPa NNW 4.8 km/h 14.5 km/h 91% 0 mm
06:50 -3.7 °C -4.9 °C 1000.2 hPa NW 8 km/h 19.3 km/h 91% 0 mm
06:55 -4.1 °C -5.3 °C 1000.2 hPa NW 8 km/h 19.3 km/h 91% 0 mm
07:00 -4.3 °C -5.6 °C 999.9 hPa NW 8 km/h 17.7 km/h 91% 0 mm
07:05 -4.6 °C -5.8 °C 1000.2 hPa NW 8 km/h 14.5 km/h 91% 0 mm
07:10 -4.9 °C -6.3 °C 1000.2 hPa NW 9.7 km/h 17.7 km/h 90% 0 mm
07:15 -5.2 °C -6.6 °C 1000.2 hPa NW 8 km/h 17.7 km/h 90% 0 mm
07:20 -5.4 °C -6.8 °C 1000.6 hPa NNW 3.2 km/h 17.7 km/h 90% 0 mm
07:25 -5.6 °C -6.9 °C 1000.2 hPa NNW 3.2 km/h 12.9 km/h 90% 0 mm
07:30 -5.6 °C -7 °C 1000.6 hPa NNW 1.6 km/h 11.3 km/h 90% 0 mm
07:35 -5.8 °C -7.2 °C 1000.6 hPa NW 6.4 km/h 11.3 km/h 90% 0 mm
07:40 -6.2 °C -7.7 °C 1000.9 hPa North 3.2 km/h 11.3 km/h 89% 0 mm
07:45 -6.4 °C -7.9 °C 1000.9 hPa NNW 3.2 km/h 9.7 km/h 89% 0 mm
07:50 -6.7 °C -8.3 °C 1000.9 hPa NNW 4.8 km/h 14.5 km/h 88% 0 mm
07:55 -6.8 °C -8.5 °C 1000.9 hPa NNW 4.8 km/h 19.3 km/h 88% 0 mm
08:00 -6.8 °C -8.5 °C 1000.9 hPa NNW 4.8 km/h 19.3 km/h 88% 0 mm
08:05 -6.9 °C -8.6 °C 1000.9 hPa NNW 6.4 km/h 17.7 km/h 88% 0 mm
08:10 -7.1 °C -8.7 °C 1000.9 hPa NNW 4.8 km/h 17.7 km/h 88% 0 mm
08:15 -7.1 °C -8.8 °C 1000.9 hPa North 3.2 km/h 11.3 km/h 88% 0 mm
08:20 -7.2 °C -8.9 °C 1001.2 hPa North 3.2 km/h 16.1 km/h 87% 0 mm
08:25 -7.2 °C -8.9 °C 1001.2 hPa NNE 1.6 km/h 16.1 km/h 87% 0 mm
08:30 -7.2 °C -9 °C 1001.2 hPa North 3.2 km/h 12.9 km/h 87% 0 mm
08:35 -7.3 °C -9.1 °C 1001.2 hPa North 4.8 km/h 14.5 km/h 87% 0 mm
08:40 -7.4 °C -9.2 °C 1001.2 hPa North 6.4 km/h 16.1 km/h 87% 0 mm
08:45 -7.4 °C -9.2 °C 1001.2 hPa North 4.8 km/h 16.1 km/h 87% 0 mm
08:50 -7.4 °C -9.2 °C 1001.2 hPa North 4.8 km/h 19.3 km/h 87% 0 mm
08:55 -7.5 °C -9.4 °C 1001.2 hPa North 3.2 km/h 19.3 km/h 86% 0 mm
09:05 -7.6 °C -9.5 °C 1001.6 hPa North 4.8 km/h 17.7 km/h 86% 0 mm
09:10 -7.6 °C -9.6 °C 1001.6 hPa NNE 3.2 km/h 20.9 km/h 86% 0 mm
09:15 -7.7 °C -9.6 °C 1001.2 hPa North 6.4 km/h 20.9 km/h 86% 0 mm
09:20 -7.7 °C -9.6 °C 1001.6 hPa North 4.8 km/h 16.1 km/h 86% 0 mm
09:25 -7.7 °C -9.6 °C 1001.6 hPa NNE 3.2 km/h 17.7 km/h 86% 0 mm
09:30 -7.4 °C -9.4 °C 1001.6 hPa North 1.6 km/h 17.7 km/h 86% 0 mm
09:35 -7.3 °C -9.2 °C 1001.6 hPa North 3.2 km/h 9.7 km/h 86% 0 mm
09:40 -7.3 °C -9.4 °C 1001.6 hPa NNE 6.4 km/h 14.5 km/h 85% 0 mm
09:45 -7.3 °C -9.4 °C 1001.6 hPa North 4.8 km/h 14.5 km/h 85% 0 mm
09:50 -7.2 °C -9.2 °C 1001.6 hPa NNE 6.4 km/h 14.5 km/h 86% 0 mm
09:55 -7.2 °C -9.3 °C 1001.6 hPa North 4.8 km/h 12.9 km/h 85% 0 mm
10:00 -7.3 °C -9.4 °C 1001.6 hPa NNE 4.8 km/h 11.3 km/h 85% 0 mm
10:05 -7.2 °C -9.3 °C 1001.6 hPa North 4.8 km/h 9.7 km/h 85% 0 mm
10:10 -7.3 °C -9.6 °C 1001.6 hPa North 4.8 km/h 9.7 km/h 84% 0 mm
10:15 -7.4 °C -9.6 °C 1001.6 hPa NNW 8 km/h 17.7 km/h 84% 0 mm
10:20 -7.5 °C -9.7 °C 1001.6 hPa NNW 9.7 km/h 17.7 km/h 84% 0 mm
10:25 -7.7 °C -9.9 °C 1001.6 hPa NNW 6.4 km/h 20.9 km/h 84% 0 mm
10:30 -7.8 °C -10.1 °C 1001.6 hPa NNW 3.2 km/h 20.9 km/h 84% 0 mm
10:35 -7.8 °C -10 °C 1001.6 hPa NNW 4.8 km/h 19.3 km/h 84% 0 mm
10:40 -7.9 °C -10.3 °C 1001.9 hPa NNW 9.7 km/h 20.9 km/h 83% 0 mm
10:45 -8.1 °C -10.5 °C 1001.9 hPa North 8 km/h 25.7 km/h 83% 0 mm
10:50 -8.2 °C -10.6 °C 1002.3 hPa NNW 9.7 km/h 25.7 km/h 83% 0 mm
10:55 -8.4 °C -10.8 °C 1001.9 hPa NNW 8 km/h 20.9 km/h 83% 0 mm
11:00 -8.7 °C -11.1 °C 1002.3 hPa NNW 8 km/h 24.1 km/h 83% 0 mm
11:05 -8.7 °C -11.1 °C 1002.3 hPa NNW 6.4 km/h 24.1 km/h 83% 0 mm
11:10 -8.7 °C -11.1 °C 1002.3 hPa NNW 8 km/h 16.1 km/h 83% 0 mm
11:15 -8.8 °C -11.3 °C 1002.3 hPa NNW 6.4 km/h 19.3 km/h 82% 0 mm
11:20 -8.9 °C -11.4 °C 1002.3 hPa NNW 4.8 km/h 19.3 km/h 82% 0 mm
11:25 -9 °C -11.5 °C 1002.3 hPa NNW 4.8 km/h 16.1 km/h 82% 0 mm
11:30 -8.9 °C -11.4 °C 1002.3 hPa North 4.8 km/h 16.1 km/h 82% 0 mm
11:35 -8.9 °C -11.4 °C 1002.3 hPa NNW 3.2 km/h 14.5 km/h 82% 0 mm
11:40 -9.1 °C -11.7 °C 1002.3 hPa NNW 6.4 km/h 14.5 km/h 81% 0 mm
11:45 -9 °C -11.5 °C 1002.3 hPa NNW 3.2 km/h 14.5 km/h 82% 0 mm
11:50 -8.9 °C -11.4 °C 1002.3 hPa North 3.2 km/h 11.3 km/h 82% 0 mm
11:55 -9.1 °C -11.7 °C 1002.3 hPa NNW 6.4 km/h 14.5 km/h 81% 0 mm
12:00 -9.2 °C -11.8 °C 1001.9 hPa North 4.8 km/h 16.1 km/h 81% 0 mm
12:05 -9.2 °C -11.9 °C 1001.9 hPa North 6.4 km/h 17.7 km/h 81% 0 mm
12:10 -9.3 °C -11.9 °C 1001.9 hPa North 3.2 km/h 17.7 km/h 81% 0 mm
12:15 -9.3 °C -12 °C 1001.9 hPa NNE 4.8 km/h 14.5 km/h 81% 0 mm
12:20 -9.4 °C -12.1 °C 1001.9 hPa North 1.6 km/h 11.3 km/h 81% 0 mm
12:25 -9.4 °C -11.9 °C 1002.3 hPa NNE 3.2 km/h 9.7 km/h 82% 0 mm
12:30 -9.4 °C -12.1 °C 1002.3 hPa NW 1.6 km/h 9.7 km/h 81% 0 mm
12:40 -9.8 °C -12.4 °C 1002.3 hPa NNE 1.6 km/h 14.5 km/h 81% 0 mm
12:45 -9.9 °C -12.6 °C 1002.6 hPa North 3.2 km/h 12.9 km/h 81% 0 mm
12:50 -10.1 °C -12.7 °C 1002.6 hPa North 4.8 km/h 11.3 km/h 81% 0 mm
12:55 -10.3 °C -13.1 °C 1002.6 hPa North 4.8 km/h 14.5 km/h 80% 0 mm
13:00 -10.4 °C -13.1 °C 1002.6 hPa NNW 6.4 km/h 17.7 km/h 81% 0 mm
13:05 -10.6 °C -13.2 °C 1002.6 hPa NNE 3.2 km/h 17.7 km/h 81% 0 mm
13:10 -10.6 °C -13.2 °C 1002.6 hPa North 3.2 km/h 12.9 km/h 81% 0 mm
13:15 -10.6 °C -13.2 °C 1002.6 hPa NNE 1.6 km/h 12.9 km/h 81% 0 mm
13:20 -10.7 °C -13.4 °C 1002.6 hPa North 6.4 km/h 16.1 km/h 80% 0 mm
13:25 -10.8 °C -13.4 °C 1002.6 hPa North 3.2 km/h 16.1 km/h 81% 0 mm
13:30 -10.9 °C -13.5 °C 1002.9 hPa NNW 1.6 km/h 12.9 km/h 81% 0 mm
13:35 -11 °C -13.6 °C 1002.9 hPa NNW 4.8 km/h 11.3 km/h 81% 0 mm
13:45 -11.2 °C -13.8 °C 1002.9 hPa Calm   9.7 km/h 81% 0 mm
13:50 -11.1 °C -13.6 °C 1002.9 hPa North 3.2 km/h 8 km/h 82% 0 mm
13:55 -11.1 °C -13.5 °C 1002.9 hPa NNW 3.2 km/h 11.3 km/h 82% 0 mm
14:00 -11.1 °C -13.7 °C 1003.3 hPa Calm   11.3 km/h 81% 0 mm
14:05 -11.2 °C -13.8 °C 1003.3 hPa Calm   11.3 km/h 81% 0 mm
14:10 -11.3 °C -13.9 °C 1003.3 hPa NNW 1.6 km/h 8 km/h 81% 0 mm
14:15 -11.3 °C -13.9 °C 1003.3 hPa North 1.6 km/h 8 km/h 81% 0 mm
14:20 -11.3 °C -13.9 °C 1003.3 hPa NNE 3.2 km/h 9.7 km/h 81% 0 mm
14:25 -11.3 °C -13.9 °C 1003.3 hPa NNE 3.2 km/h 11.3 km/h 81% 0 mm
14:30 -11.3 °C -14.1 °C 1003.3 hPa North 3.2 km/h 11.3 km/h 80% 0 mm
14:35 -11.3 °C -14.1 °C 1003.3 hPa North 1.6 km/h 8 km/h 80% 0 mm
14:40 -11.2 °C -14.2 °C 1003.6 hPa North 1.6 km/h 6.4 km/h 79% 0 mm
14:45 -11.2 °C -14.2 °C 1003.6 hPa Calm   8 km/h 79% 0 mm
14:50 -11.2 °C -14.2 °C 1003.6 hPa Calm   8 km/h 79% 0 mm
14:55 -11.2 °C -14.3 °C 1003.9 hPa NNW 1.6 km/h 8 km/h 78% 0 mm
15:00 -11.3 °C -14.4 °C 1003.9 hPa North 1.6 km/h 8 km/h 78% 0 mm
15:05 -11.4 °C -14.4 °C 1003.9 hPa North 1.6 km/h 8 km/h 78% 0 mm
15:10 -11.4 °C -14.4 °C 1004.3 hPa Calm   8 km/h 78% 0 mm
15:15 -11.4 °C -14.5 °C 1004.3 hPa Calm   3.2 km/h 78% 0 mm
15:20 -11.5 °C -14.6 °C 1004.6 hPa Calm   6.4 km/h 78% 0 mm
15:25 -11.6 °C -14.6 °C 1004.6 hPa NW 1.6 km/h 6.4 km/h 78% 0 mm
15:30 -11.8 °C -14.8 °C 1004.6 hPa NNE 1.6 km/h 12.9 km/h 78% 0 mm
15:35 -11.9 °C -14.8 °C 1004.6 hPa NW 1.6 km/h 14.5 km/h 79% 0 mm
15:40 -12.1 °C -15 °C 1004.6 hPa NNW 8 km/h 17.7 km/h 79% 0 mm
15:45 -12.2 °C -14.9 °C 1005 hPa NNW 4.8 km/h 17.7 km/h 80% 0 mm
15:50 -12.4 °C -15.1 °C 1005 hPa NNW 8 km/h 16.1 km/h 80% 0 mm
15:55 -12.6 °C -15.3 °C 1005 hPa NNW 6.4 km/h 17.7 km/h 80% 0 mm
16:00 -12.8 °C -15.5 °C 1005 hPa NNW 4.8 km/h 17.7 km/h 80% 0 mm
16:05 -12.9 °C -15.7 °C 1005.3 hPa NW 6.4 km/h 16.1 km/h 80% 0 mm
16:10 -13.1 °C -15.8 °C 1005.3 hPa NNW 4.8 km/h 22.5 km/h 80% 0 mm
16:15 -13.2 °C -15.8 °C 1005.3 hPa NNW 6.4 km/h 22.5 km/h 81% 0 mm
16:20 -13.3 °C -15.9 °C 1005.3 hPa NNW 4.8 km/h 16.1 km/h 81% 0 mm
16:25 -13.4 °C -15.9 °C 1005.6 hPa NNW 4.8 km/h 16.1 km/h 81% 0 mm
16:30 -13.5 °C -15.9 °C 1005.6 hPa NNW 4.8 km/h 19.3 km/h 82% 0 mm
16:35 -13.6 °C -15.9 °C 1006 hPa NW 4.8 km/h 19.3 km/h 82% 0 mm
16:40 -13.6 °C -16 °C 1006 hPa NW 8 km/h 14.5 km/h 82% 0 mm
16:45 -13.7 °C -16.1 °C 1006 hPa NW 6.4 km/h 17.7 km/h 82% 0 mm
16:50 -13.7 °C -16.1 °C 1006 hPa NW 6.4 km/h 20.9 km/h 82% 0 mm
16:55 -13.7 °C -16.1 °C 1006.3 hPa NW 11.3 km/h 24.1 km/h 82% 0 mm
17:00 -13.7 °C -16.1 °C 1006.3 hPa NNW 3.2 km/h 24.1 km/h 82% 0 mm
17:05 -13.8 °C -16.2 °C 1006.3 hPa NW 8 km/h 16.1 km/h 82% 0 mm
17:10 -13.8 °C -16.2 °C 1006.7 hPa NW 6.4 km/h 16.1 km/h 82% 0 mm
17:15 -13.9 °C -16.3 °C 1006.7 hPa NNW 6.4 km/h 14.5 km/h 82% 0 mm
17:20 -13.9 °C -16.3 °C 1007 hPa NW 6.4 km/h 14.5 km/h 82% 0 mm
17:25 -13.9 °C -16.3 °C 1007 hPa NW 4.8 km/h 12.9 km/h 82% 0 mm
17:30 -14 °C -16.4 °C 1007 hPa NW 4.8 km/h 12.9 km/h 82% 0 mm
17:35 -14 °C -16.3 °C 1007.3 hPa NW 4.8 km/h 9.7 km/h 83% 0 mm
17:40 -14 °C -16.3 °C 1007.3 hPa NW 3.2 km/h 9.7 km/h 83% 0 mm
17:45 -14.1 °C -16.3 °C 1007.7 hPa WNW 4.8 km/h 11.3 km/h 83% 0 mm
17:50 -14.1 °C -16.3 °C 1007.7 hPa NW 1.6 km/h 11.3 km/h 83% 0 mm
17:55 -14 °C -16.3 °C 1008 hPa NW 1.6 km/h 8 km/h 83% 0 mm
18:00 -14 °C -16.3 °C 1008.4 hPa Calm   4.8 km/h 83% 0 mm
18:05 -14 °C -16.3 °C 1008.4 hPa WNW 3.2 km/h 9.7 km/h 83% 0 mm
18:10 -14 °C -16.4 °C 1008.4 hPa WNW 8 km/h 14.5 km/h 82% 0 mm
18:15 -14.1 °C -16.4 °C 1008.7 hPa WNW 4.8 km/h 14.5 km/h 82% 0 mm
18:20 -14.1 °C -16.6 °C 1008.7 hPa NW 6.4 km/h 14.5 km/h 81% 0 mm
18:25 -14.1 °C -16.8 °C 1009 hPa WNW 11.3 km/h 16.1 km/h 80% 0 mm
18:30 -14.2 °C -17.1 °C 1009 hPa NW 8 km/h 16.1 km/h 79% 0 mm
18:35 -14.3 °C -17.3 °C 1009.4 hPa WNW 9.7 km/h 14.5 km/h 78% 0 mm
18:40 -14.4 °C -17.4 °C 1009.4 hPa NW 9.7 km/h 17.7 km/h 78% 0 mm
18:50 -14.6 °C -17.6 °C 1009.7 hPa NW 4.8 km/h 9.7 km/h 78% 0 mm
18:55 -14.7 °C -17.8 °C 1009.7 hPa NW 4.8 km/h 12.9 km/h 77% 0 mm
19:05 -14.8 °C -18.1 °C 1010 hPa NW 1.6 km/h 12.9 km/h 76% 0 mm
19:10 -15 °C -18.3 °C 1010.4 hPa NW 6.4 km/h 11.3 km/h 76% 0 mm
19:15 -15.1 °C -18.4 °C 1010.4 hPa NW 1.6 km/h 11.3 km/h 76% 0 mm
19:20 -15.2 °C -18.5 °C 1010.4 hPa WNW 3.2 km/h 11.3 km/h 76% 0 mm
19:25 -15.3 °C -18.6 °C 1010.7 hPa WNW 4.8 km/h 11.3 km/h 76% 0 mm
19:30 -15.3 °C -18.6 °C 1010.7 hPa NW 3.2 km/h 11.3 km/h 76% 0 mm
19:35 -15.3 °C -18.6 °C 1011.1 hPa WNW 8 km/h 16.1 km/h 76% 0 mm
19:40 -15.4 °C -18.7 °C 1011.1 hPa NW 4.8 km/h 16.1 km/h 76% 0 mm
19:45 -15.5 °C -18.9 °C 1011.4 hPa NW 1.6 km/h 11.3 km/h 75% 0 mm
19:50 -15.6 °C -19 °C 1011.4 hPa WNW 4.8 km/h 16.1 km/h 75% 0 mm
19:55 -15.7 °C -19.1 °C 1011.4 hPa NW 8 km/h 19.3 km/h 75% 0 mm
20:00 -15.8 °C -19.3 °C 1011.7 hPa West 8 km/h 19.3 km/h 74% 0 mm
20:05 -15.9 °C -19.3 °C 1011.7 hPa WNW 3.2 km/h 12.9 km/h 75% 0 mm
20:10 -16.2 °C -19.6 °C 1011.7 hPa WNW 6.4 km/h 12.9 km/h 75% 0 mm
20:15 -16.3 °C -19.7 °C 1011.7 hPa West 3.2 km/h 12.9 km/h 75% 0 mm
20:20 -16.6 °C -20 °C 1011.7 hPa NW 3.2 km/h 11.3 km/h 75% 0 mm
20:25 -16.9 °C -20.1 °C 1011.7 hPa West 1.6 km/h 11.3 km/h 76% 0 mm
20:30 -17 °C -20.2 °C 1012.1 hPa West 6.4 km/h 12.9 km/h 76% 0 mm
20:40 -16.9 °C -20.2 °C 1012.4 hPa WNW 1.6 km/h 8 km/h 76% 0 mm
20:45 -17.1 °C -20.5 °C 1012.4 hPa WNW 4.8 km/h 9.7 km/h 75% 0 mm
20:50 -17 °C -20.2 °C 1012.4 hPa West 1.6 km/h 9.7 km/h 76% 0 mm
20:55 -16.8 °C -20 °C 1012.8 hPa WNW 3.2 km/h 12.9 km/h 76% 0 mm
21:00 -16.7 °C -20.1 °C 1012.8 hPa West 1.6 km/h 12.9 km/h 75% 0 mm
21:05 -16.7 °C -20.1 °C 1012.8 hPa WSW 3.2 km/h 9.7 km/h 75% 0 mm
21:10 -16.6 °C -20.2 °C 1013.1 hPa West 8 km/h 14.5 km/h 74% 0 mm
21:15 -16.6 °C -20.3 °C 1013.1 hPa WNW 6.4 km/h 19.3 km/h 73% 0 mm
21:20 -16.6 °C -20.3 °C 1013.1 hPa WNW 6.4 km/h 19.3 km/h 73% 0 mm
21:25 -16.6 °C -20.1 °C 1013.4 hPa WNW 12.9 km/h 24.1 km/h 74% 0 mm
21:30 -16.6 °C -20.3 °C 1013.4 hPa WNW 6.4 km/h 24.1 km/h 73% 0 mm
21:35 -16.6 °C -20.3 °C 1013.8 hPa WNW 9.7 km/h 20.9 km/h 73% 0 mm
21:45 -16.4 °C -20.1 °C 1013.8 hPa WNW 9.7 km/h 17.7 km/h 73% 0 mm
21:50 -16.3 °C -20.1 °C 1013.8 hPa WNW 6.4 km/h 17.7 km/h 73% 0 mm
21:55 -16.3 °C -20 °C 1013.8 hPa WNW 8 km/h 17.7 km/h 73% 0 mm
22:00 -16.3 °C -20.2 °C 1013.8 hPa WNW 8 km/h 17.7 km/h 72% 0 mm
22:05 -16.3 °C -20.2 °C 1013.8 hPa WNW 4.8 km/h 17.7 km/h 72% 0 mm
22:15 -16.7 °C -20.4 °C 1013.8 hPa West 4.8 km/h 12.9 km/h 73% 0 mm
22:20 -16.9 °C -20.6 °C 1014.1 hPa West 3.2 km/h 12.9 km/h 73% 0 mm
22:25 -17.2 °C -20.7 °C 1014.1 hPa WNW 4.8 km/h 11.3 km/h 74% 0 mm
22:30 -17.4 °C -20.9 °C 1014.1 hPa West 1.6 km/h 11.3 km/h 74% 0 mm
22:40 -17.6 °C -20.9 °C 1014.1 hPa West 4.8 km/h 12.9 km/h 75% 0 mm
22:45 -17.3 °C -20.6 °C 1014.1 hPa West 6.4 km/h 11.3 km/h 76% 0 mm
22:50 -16.7 °C -20.1 °C 1014.1 hPa West 4.8 km/h 14.5 km/h 75% 0 mm
22:55 -16.5 °C -20.1 °C 1014.1 hPa WSW 6.4 km/h 14.5 km/h 74% 0 mm
23:00 -16.4 °C -19.9 °C 1014.4 hPa WSW 4.8 km/h 12.9 km/h 74% 0 mm
23:05 -16.5 °C -20.1 °C 1014.4 hPa WSW 4.8 km/h 14.5 km/h 74% 0 mm
23:10 -16.5 °C -20.1 °C 1014.4 hPa WSW 4.8 km/h 14.5 km/h 74% 0 mm
23:15 -16.5 °C -20.1 °C 1014.4 hPa SW 3.2 km/h 9.7 km/h 74% 0 mm
23:20 -16.7 °C -20.2 °C 1014.4 hPa SW 4.8 km/h 9.7 km/h 74% 0 mm
23:25 -16.7 °C -20.2 °C 1014.4 hPa SW 3.2 km/h 9.7 km/h 74% 0 mm
23:30 -16.7 °C -20.2 °C 1014.8 hPa WSW 3.2 km/h 9.7 km/h 74% 0 mm
23:35 -16.8 °C -20.3 °C 1014.8 hPa SW 3.2 km/h 9.7 km/h 74% 0 mm
23:40 -16.6 °C -19.9 °C 1014.8 hPa SW 6.4 km/h 11.3 km/h 75% 0 mm
23:45 -16.4 °C -20 °C 1014.8 hPa SW 6.4 km/h 11.3 km/h 74% 0 mm
23:50 -16.4 °C -19.9 °C 1014.4 hPa WSW 4.8 km/h 11.3 km/h 74% 0 mm
23:55 -16.4 °C -19.9 °C 1014.8 hPa SW 4.8 km/h 11.3 km/h 74% 0 mm
Westford Weather
Compliments of Weather Underground

 
 
Current Radar Loop:

Copyright © WestfordWeather.net 2007-2014. All rights reserved.